createdAt,value
2023-03-31T00:02:22.908Z,99.90
2023-03-31T00:06:41.381Z,99.90
2023-03-31T00:10:50.055Z,99.90
2023-03-31T00:14:58.886Z,99.90
2023-03-31T00:19:09.422Z,99.90
2023-03-31T00:23:18.089Z,99.90
2023-03-31T00:27:28.374Z,99.90
2023-03-31T00:31:38.763Z,99.90
2023-03-31T00:35:48.854Z,99.90
2023-03-31T00:39:58.252Z,99.90
2023-03-31T00:44:23.444Z,99.90
2023-03-31T00:48:33.803Z,34.80
2023-03-31T00:52:42.786Z,99.90
2023-03-31T00:56:55.582Z,1.00
2023-03-31T01:01:04.934Z,1.00
2023-03-31T01:05:13.602Z,1.00
2023-03-31T01:09:22.826Z,99.90
2023-03-31T01:13:32.365Z,99.90
2023-03-31T01:17:43.506Z,1.00
2023-03-31T01:22:10.151Z,1.00
2023-03-31T01:26:39.948Z,4.60
2023-03-31T01:31:07.092Z,37.80
2023-03-31T01:35:37.059Z,67.60
2023-03-31T01:40:00.615Z,99.90
2023-03-31T01:44:24.020Z,99.90
2023-03-31T01:49:11.117Z,99.90
2023-03-31T01:53:28.736Z,99.90
2023-03-31T01:57:43.178Z,99.90
2023-03-31T02:01:56.415Z,99.90
2023-03-31T02:06:08.749Z,99.90
2023-03-31T02:10:19.331Z,99.90
2023-03-31T02:14:31.150Z,99.90
2023-03-31T02:18:41.718Z,99.90
2023-03-31T02:22:53.383Z,99.90
2023-03-31T02:27:20.089Z,99.90
2023-03-31T02:31:37.953Z,99.90
2023-03-31T02:35:46.780Z,99.90
2023-03-31T02:39:57.948Z,99.90
2023-03-31T02:44:06.650Z,99.90
2023-03-31T02:48:18.710Z,99.90
2023-03-31T02:52:48.541Z,99.90
2023-03-31T02:57:18.691Z,99.90
2023-03-31T03:01:42.587Z,99.90
2023-03-31T03:06:05.153Z,99.90
2023-03-31T03:10:38.579Z,99.90
2023-03-31T03:14:59.091Z,99.90
2023-03-31T03:19:08.951Z,99.90
2023-03-31T03:23:18.174Z,99.90
2023-03-31T03:27:26.754Z,99.90
2023-03-31T03:31:35.443Z,99.90
2023-03-31T03:35:44.719Z,99.90
2023-03-31T03:39:53.320Z,99.90
2023-03-31T03:44:02.556Z,99.90
2023-03-31T03:48:11.388Z,99.90
2023-03-31T03:52:20.933Z,99.90
2023-03-31T03:56:29.548Z,99.90
2023-03-31T04:00:38.136Z,99.90
2023-03-31T04:04:47.910Z,99.90
2023-03-31T04:08:56.710Z,99.90
2023-03-31T04:13:05.306Z,99.90
2023-03-31T04:17:34.014Z,99.90
2023-03-31T04:21:44.272Z,99.90
2023-03-31T04:25:53.399Z,99.90
2023-03-31T04:30:03.160Z,99.90
2023-03-31T04:34:14.205Z,99.90
2023-03-31T04:38:27.789Z,99.90
2023-03-31T04:42:37.025Z,99.90
2023-03-31T04:46:45.770Z,99.90
2023-03-31T04:50:54.391Z,99.90
2023-03-31T04:55:03.004Z,99.90
2023-03-31T04:59:11.944Z,99.90
2023-03-31T05:03:21.799Z,99.90
2023-03-31T05:07:31.568Z,99.90
2023-03-31T05:11:40.592Z,99.90
2023-03-31T05:15:50.794Z,99.90
2023-03-31T05:19:59.617Z,99.90
2023-03-31T05:24:08.409Z,99.90
2023-03-31T05:28:17.112Z,99.90
2023-03-31T05:32:27.320Z,99.90
2023-03-31T05:36:37.391Z,99.90
2023-03-31T05:40:46.235Z,99.90
2023-03-31T05:44:54.820Z,99.90
2023-03-31T05:49:03.599Z,99.90
2023-03-31T05:53:12.275Z,99.90
2023-03-31T05:57:20.949Z,99.90
2023-03-31T06:01:29.963Z,99.90
2023-03-31T06:05:39.330Z,99.90
2023-03-31T06:09:47.954Z,99.90
2023-03-31T06:13:56.559Z,99.90
2023-03-31T06:18:06.989Z,99.90
2023-03-31T06:22:15.687Z,99.90
2023-03-31T06:26:24.623Z,99.90
2023-03-31T06:30:33.595Z,91.50
2023-03-31T06:34:42.392Z,99.90
2023-03-31T06:38:52.182Z,99.90
2023-03-31T06:43:00.814Z,99.90
2023-03-31T06:47:09.444Z,99.90
2023-03-31T06:51:18.394Z,99.90
2023-03-31T06:55:26.995Z,99.90
2023-03-31T06:59:35.691Z,99.90
2023-03-31T07:03:44.422Z,99.90
2023-03-31T07:07:53.981Z,99.90
2023-03-31T07:12:04.191Z,99.90
2023-03-31T07:16:14.128Z,99.90
2023-03-31T07:20:22.882Z,99.90
2023-03-31T07:24:31.570Z,99.90
2023-03-31T07:28:40.807Z,99.90
2023-03-31T07:32:51.517Z,99.90
2023-03-31T07:37:00.217Z,99.90
2023-03-31T07:41:14.389Z,99.90
2023-03-31T07:45:25.741Z,99.90
2023-03-31T07:49:35.752Z,99.90
2023-03-31T07:53:44.737Z,99.90
2023-03-31T07:57:53.412Z,99.90
2023-03-31T08:02:02.258Z,99.90
2023-03-31T08:06:11.266Z,99.90
2023-03-31T08:10:23.410Z,99.90
2023-03-31T08:14:40.541Z,99.90
2023-03-31T08:18:42.461Z,99.90
2023-03-31T08:22:51.548Z,99.90
2023-03-31T08:27:00.145Z,99.90
2023-03-31T08:31:10.468Z,99.90
2023-03-31T08:35:19.169Z,99.90
2023-03-31T08:39:27.782Z,99.90
2023-03-31T08:43:39.575Z,99.90
2023-03-31T08:47:51.842Z,99.90
2023-03-31T08:52:03.554Z,99.90
2023-03-31T08:56:17.555Z,99.90
2023-03-31T09:00:26.791Z,99.90
2023-03-31T09:05:01.231Z,99.90
2023-03-31T09:09:12.925Z,99.90
2023-03-31T09:13:33.330Z,99.90
2023-03-31T09:17:51.434Z,99.90
2023-03-31T09:22:01.786Z,99.90
2023-03-31T09:26:29.644Z,99.90
2023-03-31T09:30:39.221Z,99.90
2023-03-31T09:34:49.945Z,80.90
2023-03-31T09:38:58.557Z,99.20
2023-03-31T09:43:10.312Z,1.00
2023-03-31T09:47:22.110Z,1.00
2023-03-31T09:51:33.999Z,1.00
2023-03-31T09:55:58.291Z,99.90
2023-03-31T10:00:17.193Z,1.00
2023-03-31T10:04:28.740Z,99.90
2023-03-31T10:08:43.447Z,99.90
2023-03-31T10:12:53.742Z,99.90
2023-03-31T10:17:06.618Z,99.90
2023-03-31T10:21:21.287Z,99.90
2023-03-31T10:25:30.034Z,1.00
2023-03-31T10:29:40.395Z,1.00
2023-03-31T10:33:51.817Z,1.00
2023-03-31T10:38:06.580Z,1.00
2023-03-31T10:42:24.924Z,1.00
2023-03-31T10:46:45.910Z,99.90
2023-03-31T10:50:56.335Z,99.90
2023-03-31T10:55:06.704Z,1.00
2023-03-31T10:59:39.841Z,1.00
2023-03-31T11:04:18.774Z,1.00
2023-03-31T11:08:39.271Z,99.90
2023-03-31T11:13:00.557Z,1.00
2023-03-31T11:17:24.247Z,99.90
2023-03-31T11:21:41.900Z,1.00
2023-03-31T11:25:53.643Z,99.90
2023-03-31T11:30:20.665Z,94.10
2023-03-31T11:34:50.558Z,14.60
2023-03-31T11:39:18.753Z,8.80
2023-03-31T11:43:47.458Z,1.00
2023-03-31T11:47:59.505Z,1.00
2023-03-31T11:52:11.464Z,1.00
2023-03-31T11:56:21.513Z,1.00
2023-03-31T12:00:53.942Z,1.00
2023-03-31T12:05:05.426Z,1.00
2023-03-31T12:09:35.130Z,1.00
2023-03-31T12:14:01.692Z,1.00
2023-03-31T12:18:18.912Z,1.00
2023-03-31T12:22:34.414Z,1.00
2023-03-31T12:26:52.149Z,1.00
2023-03-31T12:31:03.644Z,1.00
2023-03-31T12:35:26.594Z,1.00
2023-03-31T12:39:56.267Z,1.00
2023-03-31T12:44:37.888Z,1.00
2023-03-31T12:48:54.128Z,1.00
2023-03-31T12:53:26.836Z,1.00
2023-03-31T12:57:35.668Z,1.00
2023-03-31T13:02:03.967Z,1.00
2023-03-31T13:06:33.473Z,1.00
2023-03-31T13:11:00.959Z,1.00
2023-03-31T13:15:12.748Z,1.00
2023-03-31T13:19:33.865Z,1.00
2023-03-31T13:23:46.629Z,1.00
2023-03-31T13:27:55.534Z,1.00
2023-03-31T13:32:08.157Z,1.00
2023-03-31T13:36:37.769Z,1.00
2023-03-31T13:41:12.991Z,1.00
2023-03-31T13:45:50.804Z,1.00
2023-03-31T13:50:21.989Z,1.00
2023-03-31T13:55:10.884Z,1.00
2023-03-31T13:59:31.719Z,1.00
2023-03-31T14:04:06.081Z,1.00
2023-03-31T14:08:23.741Z,1.00
2023-03-31T14:12:38.049Z,1.00
2023-03-31T14:16:55.720Z,1.00
2023-03-31T14:21:26.702Z,1.00
2023-03-31T14:26:07.094Z,1.00
2023-03-31T14:30:38.555Z,1.00
2023-03-31T14:34:57.813Z,1.00
2023-03-31T14:39:09.739Z,15.20
2023-03-31T14:43:24.706Z,45.40
2023-03-31T14:47:33.457Z,99.90
2023-03-31T14:51:45.219Z,99.90
2023-03-31T14:55:59.036Z,99.90
2023-03-31T15:00:10.411Z,99.90
2023-03-31T15:04:28.760Z,99.90
2023-03-31T15:08:33.823Z,99.90
2023-03-31T15:12:42.519Z,97.70
2023-03-31T15:16:51.773Z,7.50
2023-03-31T15:21:00.490Z,1.00
2023-03-31T15:25:12.162Z,1.00
2023-03-31T15:29:23.831Z,1.00
2023-03-31T15:33:38.629Z,1.00
2023-03-31T15:37:47.749Z,1.00
2023-03-31T15:41:57.494Z,1.00
2023-03-31T15:46:06.583Z,1.00
2023-03-31T15:50:16.475Z,1.00
2023-03-31T15:54:31.358Z,1.00
2023-03-31T15:58:57.974Z,1.00
2023-03-31T16:03:12.646Z,1.00
2023-03-31T16:07:27.584Z,1.00
2023-03-31T16:11:42.141Z,1.00
2023-03-31T16:15:53.905Z,1.00
2023-03-31T16:20:29.846Z,1.00
2023-03-31T16:24:38.576Z,1.00
2023-03-31T16:28:50.278Z,1.00
2023-03-31T16:33:02.652Z,1.00
2023-03-31T16:37:11.738Z,1.00
2023-03-31T16:41:21.653Z,1.00
2023-03-31T16:45:30.323Z,27.80
2023-03-31T16:49:38.951Z,61.50
2023-03-31T16:53:48.859Z,67.50
2023-03-31T16:57:58.495Z,99.90
2023-03-31T17:02:07.296Z,62.70
2023-03-31T17:06:15.923Z,34.60
2023-03-31T17:10:24.657Z,99.90
2023-03-31T17:14:33.906Z,99.90
2023-03-31T17:18:42.870Z,99.90
2023-03-31T17:22:51.464Z,99.90
2023-03-31T17:27:00.707Z,99.90
2023-03-31T17:31:18.309Z,1.00
2023-03-31T17:35:27.281Z,1.00
2023-03-31T17:39:36.113Z,1.00
2023-03-31T17:44:08.857Z,1.00
2023-03-31T17:48:17.543Z,1.00
2023-03-31T17:52:26.162Z,1.00
2023-03-31T17:56:34.759Z,1.00
2023-03-31T18:00:43.636Z,1.00
2023-03-31T18:04:52.580Z,1.00
2023-03-31T18:09:01.295Z,1.00
2023-03-31T18:13:09.946Z,1.00
2023-03-31T18:17:18.698Z,1.00
2023-03-31T18:21:27.308Z,99.90
2023-03-31T18:25:36.296Z,1.00
2023-03-31T18:29:44.997Z,9.50
2023-03-31T18:33:54.733Z,1.00
2023-03-31T18:38:03.288Z,1.00
2023-03-31T18:42:12.052Z,1.00
2023-03-31T18:46:20.948Z,1.00
2023-03-31T18:50:30.460Z,1.00
2023-03-31T18:54:39.045Z,1.00
2023-03-31T18:58:47.651Z,1.00
2023-03-31T19:02:56.458Z,1.00
2023-03-31T19:07:05.121Z,1.00
2023-03-31T19:11:15.645Z,99.90
2023-03-31T19:15:25.411Z,99.90
2023-03-31T19:19:34.023Z,99.90
2023-03-31T19:23:42.644Z,99.90
2023-03-31T19:27:51.699Z,99.90
2023-03-31T19:32:00.365Z,99.90
2023-03-31T19:36:09.781Z,99.90
2023-03-31T19:40:18.619Z,99.90
2023-03-31T19:44:27.360Z,1.00
2023-03-31T19:48:37.543Z,1.00
2023-03-31T19:52:48.690Z,34.30
2023-03-31T19:56:58.057Z,99.90
2023-03-31T20:01:09.738Z,99.90
2023-03-31T20:05:19.624Z,1.00
2023-03-31T20:09:28.195Z,1.00
2023-03-31T20:13:37.308Z,99.90
2023-03-31T20:17:46.602Z,1.00
2023-03-31T20:21:56.120Z,1.00
2023-03-31T20:26:07.725Z,99.90
2023-03-31T20:30:16.516Z,1.00
2023-03-31T20:34:26.986Z,1.00
2023-03-31T20:38:38.294Z,99.90
2023-03-31T20:42:46.965Z,1.00
2023-03-31T20:46:57.249Z,99.90
2023-03-31T20:51:07.536Z,1.00
2023-03-31T20:55:16.844Z,99.90
2023-03-31T20:59:25.457Z,19.80
2023-03-31T21:03:34.344Z,1.00
2023-03-31T21:07:43.029Z,1.00
2023-03-31T21:11:51.779Z,99.90
2023-03-31T21:16:01.473Z,1.00
2023-03-31T21:20:10.809Z,1.00
2023-03-31T21:24:19.520Z,1.00
2023-03-31T21:28:30.886Z,1.00
2023-03-31T21:32:39.565Z,99.90
2023-03-31T21:36:50.113Z,99.90
2023-03-31T21:41:00.283Z,1.00
2023-03-31T21:45:09.434Z,41.10
2023-03-31T21:49:18.689Z,1.00
2023-03-31T21:53:28.689Z,1.00
2023-03-31T21:57:37.865Z,99.90
2023-03-31T22:01:46.490Z,1.00
2023-03-31T22:05:56.654Z,1.00
2023-03-31T22:10:06.033Z,1.00
2023-03-31T22:14:14.832Z,99.90
2023-03-31T22:18:24.278Z,4.40
2023-03-31T22:22:33.434Z,1.00
2023-03-31T22:26:42.250Z,31.20
2023-03-31T22:30:51.085Z,1.00
2023-03-31T22:35:01.295Z,1.00
2023-03-31T22:39:10.413Z,1.00
2023-03-31T22:43:18.968Z,1.00
2023-03-31T22:47:28.007Z,1.00
2023-03-31T22:51:36.790Z,1.00
2023-03-31T22:55:54.267Z,1.00
2023-03-31T22:59:57.799Z,1.00
2023-03-31T23:04:06.690Z,1.00
2023-03-31T23:08:15.510Z,1.00
2023-03-31T23:12:26.393Z,1.00
2023-03-31T23:16:35.238Z,1.00
2023-03-31T23:20:43.878Z,16.20
2023-03-31T23:25:12.030Z,35.80
2023-03-31T23:29:20.585Z,34.20
2023-03-31T23:33:30.497Z,37.30
2023-03-31T23:37:39.452Z,1.00
2023-03-31T23:41:48.067Z,23.90
2023-03-31T23:45:57.114Z,3.00
2023-03-31T23:50:06.565Z,26.10
2023-03-31T23:54:15.295Z,59.80
2023-03-31T23:58:24.589Z,87.30
